createdAt,value
2019-03-28T00:01:12.102Z,102588.44
2019-03-28T00:03:39.555Z,102585.83
2019-03-28T00:06:07.086Z,102587.94
2019-03-28T00:08:34.537Z,102581.84
2019-03-28T00:11:02.020Z,102581.81
2019-03-28T00:13:30.119Z,102576.52
2019-03-28T00:15:58.263Z,102574.31
2019-03-28T00:18:25.741Z,102576.09
2019-03-28T00:20:53.214Z,102575.66
2019-03-28T00:23:38.983Z,102579.10
2019-03-28T00:26:06.469Z,102578.23
2019-03-28T00:28:33.942Z,102581.71
2019-03-28T00:31:01.407Z,102585.63
2019-03-28T00:33:28.853Z,102581.68
2019-03-28T00:35:56.351Z,102579.06
2019-03-28T00:38:23.794Z,102582.58
2019-03-28T00:40:51.275Z,102575.05
2019-03-28T00:43:18.741Z,102578.09
2019-03-28T00:45:46.239Z,102581.17
2019-03-28T00:48:13.679Z,102572.94
2019-03-28T00:50:41.187Z,102574.68
2019-03-28T00:53:08.661Z,102574.64
2019-03-28T00:55:36.192Z,102586.33
2019-03-28T00:58:03.634Z,102578.02
2019-03-28T01:00:31.112Z,102579.80
2019-03-28T01:02:58.559Z,102581.17
2019-03-28T01:05:26.056Z,102576.86
2019-03-28T01:07:53.508Z,102573.34
2019-03-28T01:10:21.004Z,102573.23
2019-03-28T01:12:48.461Z,102567.58
2019-03-28T01:15:15.992Z,102572.00
2019-03-28T01:17:43.445Z,102567.50
2019-03-28T01:20:11.057Z,102575.45
2019-03-28T01:22:38.517Z,102579.29
2019-03-28T01:25:06.085Z,102570.12
2019-03-28T01:27:33.569Z,102573.59
2019-03-28T01:30:01.040Z,102572.66
2019-03-28T01:32:28.599Z,102560.55
2019-03-28T01:34:56.159Z,102568.38
2019-03-28T01:37:23.665Z,102562.72
2019-03-28T01:39:51.120Z,102568.41
2019-03-28T01:42:18.610Z,102565.84
2019-03-28T01:44:46.092Z,102574.97
2019-03-28T01:47:13.562Z,102570.16
2019-03-28T01:49:41.061Z,102575.22
2019-03-28T01:52:08.584Z,102566.48
2019-03-28T01:54:36.056Z,102560.87
2019-03-28T01:57:10.995Z,102560.98
2019-03-28T01:59:32.977Z,102563.98
2019-03-28T02:02:02.969Z,102568.77
2019-03-28T02:04:30.420Z,102559.59
2019-03-28T02:06:57.901Z,102562.64
2019-03-28T02:09:25.363Z,102558.44
2019-03-28T02:11:52.870Z,102561.84
2019-03-28T02:14:20.343Z,102567.91
2019-03-28T02:16:47.817Z,102568.81
2019-03-28T02:19:15.266Z,102563.16
2019-03-28T02:21:42.777Z,102570.05
2019-03-28T02:24:10.233Z,102573.48
2019-03-28T02:26:37.711Z,102573.05
2019-03-28T02:29:05.167Z,102568.70
2019-03-28T02:31:32.664Z,102569.53
2019-03-28T02:34:00.139Z,102572.66
2019-03-28T02:36:27.642Z,102576.13
2019-03-28T02:38:55.133Z,102578.78
2019-03-28T02:41:22.625Z,102576.56
2019-03-28T02:43:50.091Z,102580.95
2019-03-28T02:46:17.600Z,102578.30
2019-03-28T02:48:45.069Z,102577.44
2019-03-28T02:51:12.558Z,102579.50
2019-03-28T02:53:40.008Z,102576.05
2019-03-28T02:56:07.541Z,102570.08
2019-03-28T02:58:35.011Z,102586.13
2019-03-28T03:01:02.585Z,102578.78
2019-03-28T03:03:30.011Z,102585.73
2019-03-28T03:05:57.511Z,102585.73
2019-03-28T03:08:24.963Z,102586.09
2019-03-28T03:10:52.437Z,102584.80
2019-03-28T03:13:20.147Z,102585.70
2019-03-28T03:15:47.683Z,102590.48
2019-03-28T03:18:15.145Z,102587.95
2019-03-28T03:20:43.585Z,102590.92
2019-03-28T03:23:11.411Z,102586.92
2019-03-28T03:25:38.888Z,102595.19
2019-03-28T03:28:06.349Z,102598.31
2019-03-28T03:30:33.802Z,102598.00
2019-03-28T03:33:01.297Z,102603.09
2019-03-28T03:35:28.894Z,102603.93
2019-03-28T03:37:56.447Z,102606.89
2019-03-28T03:40:23.909Z,102606.50
2019-03-28T03:42:51.422Z,102604.23
2019-03-28T03:45:18.881Z,102603.77
2019-03-28T03:47:46.384Z,102608.20
2019-03-28T03:50:27.052Z,102606.45
2019-03-28T03:52:54.535Z,102604.28
2019-03-28T03:55:22.034Z,102603.97
2019-03-28T03:57:49.523Z,102605.31
2019-03-28T04:00:21.167Z,102605.67
2019-03-28T04:02:48.760Z,102610.89
2019-03-28T04:05:16.608Z,102606.89
2019-03-28T04:07:44.091Z,102609.59
2019-03-28T04:10:11.562Z,102612.98
2019-03-28T04:12:39.085Z,102617.72
2019-03-28T04:15:06.573Z,102617.69
2019-03-28T04:17:34.070Z,102618.98
2019-03-28T04:20:01.523Z,102623.77
2019-03-28T04:22:29.032Z,102622.94
2019-03-28T04:24:56.490Z,102625.03
2019-03-28T04:27:23.978Z,102627.25
2019-03-28T04:29:51.426Z,102622.03
2019-03-28T04:32:18.892Z,102616.89
2019-03-28T04:34:46.384Z,102628.20
2019-03-28T04:37:13.884Z,102625.56
2019-03-28T04:39:42.423Z,102621.12
2019-03-28T04:42:09.919Z,102627.20
2019-03-28T04:44:37.403Z,102628.47
2019-03-28T04:47:04.873Z,102626.38
2019-03-28T04:49:32.349Z,102634.20
2019-03-28T04:51:59.803Z,102634.73
2019-03-28T04:54:27.354Z,102638.77
2019-03-28T04:56:54.819Z,102643.34
2019-03-28T04:59:22.310Z,102641.04
2019-03-28T05:02:02.459Z,102641.47
2019-03-28T05:04:21.086Z,102637.95
2019-03-28T05:06:48.643Z,102637.59
2019-03-28T05:09:16.171Z,102629.42
2019-03-28T05:11:43.643Z,102630.52
2019-03-28T05:14:11.395Z,102636.29
2019-03-28T05:16:39.003Z,102632.55
2019-03-28T05:19:06.591Z,102636.77
2019-03-28T05:21:34.051Z,102634.08
2019-03-28T05:24:01.664Z,102636.25
2019-03-28T05:26:29.131Z,102639.52
2019-03-28T05:28:58.073Z,102648.08
2019-03-28T05:31:25.987Z,102646.73
2019-03-28T05:33:53.502Z,102651.52
2019-03-28T05:36:20.947Z,102643.77
2019-03-28T05:38:48.508Z,102647.64
2019-03-28T05:41:17.418Z,102642.61
2019-03-28T05:43:45.542Z,102645.59
2019-03-28T05:46:13.340Z,102646.03
2019-03-28T05:48:40.906Z,102645.25
2019-03-28T05:51:08.379Z,102643.42
2019-03-28T05:53:35.935Z,102645.69
2019-03-28T05:56:03.762Z,102638.78
2019-03-28T05:58:31.246Z,102641.82
2019-03-28T06:00:58.733Z,102636.82
2019-03-28T06:03:26.298Z,102644.69
2019-03-28T06:05:53.992Z,102639.86
2019-03-28T06:08:21.452Z,102641.17
2019-03-28T06:10:48.975Z,102641.20
2019-03-28T06:13:16.483Z,102645.65
2019-03-28T06:15:44.015Z,102657.95
2019-03-28T06:18:11.487Z,102652.30
2019-03-28T06:20:38.977Z,102661.05
2019-03-28T06:23:06.453Z,102661.91
2019-03-28T06:25:34.251Z,102662.30
2019-03-28T06:28:01.695Z,102664.92
2019-03-28T06:30:29.177Z,102669.73
2019-03-28T06:32:58.857Z,102672.91
2019-03-28T06:35:26.079Z,102670.14
2019-03-28T06:37:53.552Z,102668.84
2019-03-28T06:40:21.060Z,102670.22
2019-03-28T06:42:48.513Z,102679.56
2019-03-28T06:45:16.000Z,102688.22
2019-03-28T06:47:43.461Z,102688.49
2019-03-28T06:50:11.304Z,102686.41
2019-03-28T06:52:38.786Z,102698.63
2019-03-28T06:55:06.539Z,102698.20
2019-03-28T06:57:33.987Z,102701.33
2019-03-28T07:00:03.307Z,102705.28
2019-03-28T07:02:30.777Z,102704.23
2019-03-28T07:04:58.283Z,102704.80
2019-03-28T07:07:25.728Z,102700.94
2019-03-28T07:09:53.211Z,102708.20
2019-03-28T07:12:20.705Z,102710.66
2019-03-28T07:14:48.238Z,102707.11
2019-03-28T07:17:15.690Z,102710.27
2019-03-28T07:19:43.175Z,102705.80
2019-03-28T07:22:10.672Z,102709.33
2019-03-28T07:24:38.209Z,102709.00
2019-03-28T07:27:05.671Z,102707.34
2019-03-28T07:29:33.178Z,102709.91
2019-03-28T07:32:00.623Z,102707.26
2019-03-28T07:34:28.098Z,102706.80
2019-03-28T07:36:55.559Z,102709.16
2019-03-28T07:39:23.009Z,102715.80
2019-03-28T07:41:50.516Z,102712.85
2019-03-28T07:44:17.988Z,102717.17
2019-03-28T07:46:47.576Z,102703.16
2019-03-28T07:49:14.821Z,102710.06
2019-03-28T07:51:42.328Z,102707.69
2019-03-28T07:54:09.822Z,102707.32
2019-03-28T07:56:37.336Z,102702.96
2019-03-28T07:59:04.816Z,102703.46
2019-03-28T08:01:32.332Z,102704.36
2019-03-28T08:03:59.887Z,102698.00
2019-03-28T08:06:27.380Z,102702.81
2019-03-28T08:08:54.838Z,102702.84
2019-03-28T08:11:22.387Z,102705.98
2019-03-28T08:13:49.953Z,102705.54
2019-03-28T08:16:17.468Z,102708.22
2019-03-28T08:18:45.465Z,102705.59
2019-03-28T08:21:13.150Z,102704.86
2019-03-28T08:23:40.640Z,102702.27
2019-03-28T08:26:08.162Z,102713.05
2019-03-28T08:28:35.621Z,102708.36
2019-03-28T08:31:03.111Z,102712.61
2019-03-28T08:33:57.634Z,102714.06
2019-03-28T08:36:27.136Z,102714.14
2019-03-28T08:38:55.708Z,102715.08
2019-03-28T08:41:23.445Z,102709.92
2019-03-28T08:43:51.262Z,102716.45
2019-03-28T08:46:18.730Z,102716.72
2019-03-28T08:48:46.182Z,102716.01
2019-03-28T08:51:13.679Z,102716.88
2019-03-28T08:53:41.470Z,102719.46
2019-03-28T08:56:09.045Z,102723.45
2019-03-28T08:58:38.107Z,102724.34
2019-03-28T09:01:07.210Z,102725.73
2019-03-28T09:03:34.642Z,102721.38
2019-03-28T09:06:02.141Z,102723.23
2019-03-28T09:08:29.684Z,102726.62
2019-03-28T09:10:57.248Z,102731.86
2019-03-28T09:13:24.710Z,102726.17
2019-03-28T09:15:52.243Z,102728.42
2019-03-28T09:18:19.707Z,102729.33
2019-03-28T09:20:47.218Z,102724.11
2019-03-28T09:23:14.908Z,102733.30
2019-03-28T09:25:42.410Z,102729.39
2019-03-28T09:28:09.956Z,102724.56
2019-03-28T09:30:47.891Z,102730.72
2019-03-28T09:33:08.609Z,102738.19
2019-03-28T09:35:36.173Z,102734.70
2019-03-28T09:38:04.250Z,102724.21
2019-03-28T09:40:31.761Z,102727.25
2019-03-28T09:42:59.423Z,102730.27
2019-03-28T09:45:26.888Z,102732.91
2019-03-28T09:47:54.411Z,102736.45
2019-03-28T09:50:21.971Z,102743.42
2019-03-28T09:52:49.465Z,102744.33
2019-03-28T09:55:18.836Z,102743.86
2019-03-28T09:57:47.569Z,102746.94
2019-03-28T10:00:16.050Z,102742.13
2019-03-28T10:02:45.947Z,102737.32
2019-03-28T10:05:14.772Z,102737.75
2019-03-28T10:07:43.410Z,102730.72
2019-03-28T10:10:11.250Z,102735.11
2019-03-28T10:12:38.740Z,102739.47
2019-03-28T10:15:06.827Z,102736.84
2019-03-28T10:17:34.314Z,102735.98
2019-03-28T10:20:01.770Z,102726.34
2019-03-28T10:22:29.241Z,102729.39
2019-03-28T10:24:56.700Z,102732.42
2019-03-28T10:27:24.212Z,102734.70
2019-03-28T10:29:51.741Z,102732.94
2019-03-28T10:32:19.334Z,102729.36
2019-03-28T10:34:46.825Z,102733.30
2019-03-28T10:37:14.372Z,102733.30
2019-03-28T10:39:41.843Z,102729.28
2019-03-28T10:42:09.363Z,102733.21
2019-03-28T10:44:36.882Z,102728.47
2019-03-28T10:47:05.071Z,102727.12
2019-03-28T10:49:32.849Z,102738.85
2019-03-28T10:52:02.588Z,102742.78
2019-03-28T10:54:29.851Z,102739.80
2019-03-28T10:56:58.109Z,102731.84
2019-03-28T10:59:25.787Z,102734.01
2019-03-28T11:01:53.284Z,102736.12
2019-03-28T11:04:20.814Z,102741.71
2019-03-28T11:06:48.301Z,102728.36
2019-03-28T11:09:15.838Z,102731.59
2019-03-28T11:11:43.314Z,102731.11
2019-03-28T11:14:10.817Z,102731.22
2019-03-28T11:16:38.302Z,102735.29
2019-03-28T11:19:05.878Z,102727.03
2019-03-28T11:21:35.180Z,102729.56
2019-03-28T11:24:02.732Z,102730.00
2019-03-28T11:26:31.358Z,102723.97
2019-03-28T11:29:01.055Z,102729.58
2019-03-28T11:31:28.760Z,102726.90
2019-03-28T11:33:56.276Z,102694.05
2019-03-28T11:36:23.764Z,102731.22
2019-03-28T11:38:51.333Z,102722.41
2019-03-28T11:41:18.881Z,102723.62
2019-03-28T11:43:46.389Z,102724.48
2019-03-28T11:46:13.851Z,102725.58
2019-03-28T11:48:41.475Z,102728.20
2019-03-28T11:51:08.931Z,102721.68
2019-03-28T11:53:36.417Z,102725.71
2019-03-28T11:56:03.911Z,102721.33
2019-03-28T11:58:31.399Z,102724.34
2019-03-28T12:00:59.094Z,102724.30
2019-03-28T12:03:26.576Z,102726.93
2019-03-28T12:05:54.046Z,102729.50
2019-03-28T12:08:21.586Z,102728.30
2019-03-28T12:10:52.001Z,102723.89
2019-03-28T12:13:19.488Z,102726.02
2019-03-28T12:15:46.948Z,102725.55
2019-03-28T12:18:14.448Z,102719.77
2019-03-28T12:20:41.923Z,102713.59
2019-03-28T12:23:09.471Z,102711.51
2019-03-28T12:25:36.931Z,102716.72
2019-03-28T12:28:04.698Z,102712.77
2019-03-28T12:30:32.177Z,102711.03
2019-03-28T12:32:59.693Z,102723.39
2019-03-28T12:35:27.206Z,102711.55
2019-03-28T12:37:54.742Z,102719.47
2019-03-28T12:40:22.239Z,102718.61
2019-03-28T12:42:49.723Z,102709.41
2019-03-28T12:45:17.302Z,102715.09
2019-03-28T12:47:45.292Z,102719.84
2019-03-28T12:50:13.712Z,102708.03
2019-03-28T12:52:41.292Z,102722.58
2019-03-28T12:55:09.170Z,102721.27
2019-03-28T12:57:37.581Z,102715.55
2019-03-28T13:00:07.135Z,102709.91
2019-03-28T13:02:34.646Z,102717.29
2019-03-28T13:05:02.865Z,102715.09
2019-03-28T13:07:30.551Z,102705.52
2019-03-28T13:09:58.089Z,102706.34
2019-03-28T13:12:25.580Z,102706.38
2019-03-28T13:14:53.125Z,102705.19
2019-03-28T13:17:20.647Z,102703.47
2019-03-28T13:19:48.215Z,102706.46
2019-03-28T13:22:15.716Z,102706.04
2019-03-28T13:24:43.251Z,102711.27
2019-03-28T13:27:10.720Z,102704.72
2019-03-28T13:29:38.272Z,102710.38
2019-03-28T13:32:05.727Z,102702.94
2019-03-28T13:34:33.237Z,102709.08
2019-03-28T13:37:00.820Z,102699.45
2019-03-28T13:39:28.328Z,102699.50
2019-03-28T13:41:55.922Z,102706.11
2019-03-28T13:44:23.409Z,102704.32
2019-03-28T13:46:50.902Z,102705.58
2019-03-28T13:49:18.431Z,102701.58
2019-03-28T13:51:45.974Z,102703.41
2019-03-28T13:54:13.473Z,102702.13
2019-03-28T13:56:40.968Z,102706.99
2019-03-28T13:59:08.453Z,102703.48
2019-03-28T14:01:35.927Z,102701.63
2019-03-28T14:04:03.469Z,102700.77
2019-03-28T14:06:31.108Z,102699.09
2019-03-28T14:08:58.606Z,102684.69
2019-03-28T14:11:26.081Z,102697.77
2019-03-28T14:13:53.532Z,102692.55
2019-03-28T14:16:21.040Z,102692.16
2019-03-28T14:18:48.543Z,102689.48
2019-03-28T14:21:16.075Z,102687.27
2019-03-28T14:23:44.576Z,102684.20
2019-03-28T14:26:12.175Z,102685.50
2019-03-28T14:28:39.729Z,102680.73
2019-03-28T14:31:07.600Z,102678.03
2019-03-28T14:33:35.340Z,102684.60
2019-03-28T14:36:02.859Z,102685.95
2019-03-28T14:38:30.418Z,102685.02
2019-03-28T14:40:58.450Z,102665.84
2019-03-28T14:43:26.056Z,102685.09
2019-03-28T14:45:53.609Z,102683.30
2019-03-28T14:48:21.117Z,102676.30
2019-03-28T14:50:48.733Z,102676.70
2019-03-28T14:53:16.225Z,102677.12
2019-03-28T14:55:43.751Z,102667.08
2019-03-28T14:58:11.275Z,102667.56
2019-03-28T15:00:46.815Z,102671.08
2019-03-28T15:03:24.907Z,102664.48
2019-03-28T15:05:43.717Z,102667.53
2019-03-28T15:08:11.381Z,102668.41
2019-03-28T15:10:38.904Z,102669.25
2019-03-28T15:13:06.388Z,102668.86
2019-03-28T15:15:33.892Z,102662.63
2019-03-28T15:18:04.209Z,102663.55
2019-03-28T15:20:31.732Z,102669.25
2019-03-28T15:22:59.188Z,102667.42
2019-03-28T15:25:26.769Z,102666.62
2019-03-28T15:27:54.255Z,102663.14
2019-03-28T15:30:21.883Z,102659.63
2019-03-28T15:32:49.371Z,102657.81
2019-03-28T15:35:16.908Z,102653.95
2019-03-28T15:37:44.406Z,102657.89
2019-03-28T15:40:12.574Z,102657.91
2019-03-28T15:42:40.063Z,102653.99
2019-03-28T15:45:07.986Z,102653.09
2019-03-28T15:47:35.484Z,102663.64
2019-03-28T15:50:03.710Z,102658.75
2019-03-28T15:52:31.738Z,102656.17
2019-03-28T15:54:59.363Z,102659.68
2019-03-28T15:57:26.933Z,102660.11
2019-03-28T15:59:54.421Z,102662.25
2019-03-28T16:02:21.985Z,102665.41
2019-03-28T16:04:49.465Z,102665.34
2019-03-28T16:07:16.983Z,102667.91
2019-03-28T16:09:44.490Z,102665.70
2019-03-28T16:12:12.170Z,102668.42
2019-03-28T16:14:41.423Z,102671.52
2019-03-28T16:17:09.024Z,102671.95
2019-03-28T16:19:36.588Z,102672.34
2019-03-28T16:22:04.496Z,102677.97
2019-03-28T16:24:32.107Z,102672.34
2019-03-28T16:26:59.640Z,102673.70
2019-03-28T16:29:27.107Z,102669.78
2019-03-28T16:31:54.690Z,102664.06
2019-03-28T16:34:22.167Z,102666.70
2019-03-28T16:36:49.690Z,102660.15
2019-03-28T16:39:17.174Z,102659.26
2019-03-28T16:41:44.664Z,102656.63
2019-03-28T16:44:12.138Z,102659.57
2019-03-28T16:46:39.649Z,102660.14
2019-03-28T16:49:08.185Z,102657.05
2019-03-28T16:51:36.100Z,102657.10
2019-03-28T16:54:03.798Z,102664.53
2019-03-28T16:56:31.329Z,102667.63
2019-03-28T16:58:59.110Z,102669.43
2019-03-28T17:01:26.613Z,102665.49
2019-03-28T17:03:54.074Z,102664.98
2019-03-28T17:06:21.966Z,102661.45
2019-03-28T17:08:51.254Z,102673.35
2019-03-28T17:11:25.866Z,102668.95
2019-03-28T17:13:53.401Z,102673.81
2019-03-28T17:16:20.921Z,102671.65
2019-03-28T17:18:48.697Z,102672.08
2019-03-28T17:21:16.189Z,102672.10
2019-03-28T17:23:43.663Z,102673.39
2019-03-28T17:26:11.177Z,102667.27
2019-03-28T17:28:38.698Z,102662.03
2019-03-28T17:31:06.195Z,102671.69
2019-03-28T17:33:33.681Z,102674.31
2019-03-28T17:36:01.903Z,102666.90
2019-03-28T17:38:29.380Z,102669.95
2019-03-28T17:40:56.873Z,102672.11
2019-03-28T17:43:24.365Z,102668.61
2019-03-28T17:45:52.162Z,102668.17
2019-03-28T17:48:19.836Z,102662.50
2019-03-28T17:50:47.297Z,102667.75
2019-03-28T17:53:14.847Z,102666.03
2019-03-28T17:55:50.388Z,102670.37
2019-03-28T17:58:17.978Z,102667.75
2019-03-28T18:00:47.369Z,102671.25
2019-03-28T18:03:14.912Z,102605.67
2019-03-28T18:05:42.583Z,102670.41
2019-03-28T18:08:10.268Z,102670.84
2019-03-28T18:10:38.866Z,102666.45
2019-03-28T18:13:06.992Z,102665.13
2019-03-28T18:15:34.466Z,102671.70
2019-03-28T18:18:01.965Z,102666.87
2019-03-28T18:20:29.451Z,102672.13
2019-03-28T18:22:57.459Z,102674.75
2019-03-28T18:25:25.152Z,102679.55
2019-03-28T18:27:52.932Z,102669.50
2019-03-28T18:30:20.757Z,102673.91
2019-03-28T18:32:50.059Z,102681.78
2019-03-28T18:35:17.682Z,102678.73
2019-03-28T18:37:45.200Z,102679.59
2019-03-28T18:40:12.914Z,102673.46
2019-03-28T18:42:40.466Z,102676.53
2019-03-28T18:45:08.204Z,102673.48
2019-03-28T18:47:35.772Z,102675.62
2019-03-28T18:50:04.373Z,102670.83
2019-03-28T18:52:31.847Z,102670.37
2019-03-28T18:54:59.299Z,102672.13
2019-03-28T18:57:26.858Z,102666.46
2019-03-28T18:59:54.339Z,102666.87
2019-03-28T19:02:21.818Z,102672.11
2019-03-28T19:04:49.314Z,102676.47
2019-03-28T19:07:16.795Z,102674.29
2019-03-28T19:09:44.358Z,102682.59
2019-03-28T19:12:11.810Z,102680.37
2019-03-28T19:14:39.312Z,102673.83
2019-03-28T19:17:09.055Z,102671.19
2019-03-28T19:19:39.624Z,102669.42
2019-03-28T19:22:05.948Z,102669.02
2019-03-28T19:24:33.626Z,102668.12
2019-03-28T19:27:01.095Z,102670.77
2019-03-28T19:29:28.579Z,102677.69
2019-03-28T19:31:56.676Z,102681.13
2019-03-28T19:34:24.499Z,102679.41
2019-03-28T19:36:52.294Z,102679.81
2019-03-28T19:39:28.473Z,102683.25
2019-03-28T19:41:56.159Z,102690.69
2019-03-28T19:44:25.872Z,102682.37
2019-03-28T19:46:53.061Z,102697.25
2019-03-28T19:49:20.575Z,102686.78
2019-03-28T19:51:48.218Z,102695.02
2019-03-28T19:54:15.703Z,102688.01
2019-03-28T19:56:43.253Z,102686.63
2019-03-28T19:59:10.898Z,102686.69
2019-03-28T20:01:38.601Z,102688.42
2019-03-28T20:04:06.097Z,102687.53
2019-03-28T20:06:33.678Z,102685.92
2019-03-28T20:09:01.174Z,102678.97
2019-03-28T20:11:28.658Z,102681.59
2019-03-28T20:13:56.323Z,102677.59
2019-03-28T20:16:23.868Z,102682.02
2019-03-28T20:18:51.439Z,102685.89
2019-03-28T20:21:18.933Z,102687.59
2019-03-28T20:23:46.450Z,102690.20
2019-03-28T20:26:14.097Z,102692.81
2019-03-28T20:28:42.806Z,102692.37
2019-03-28T20:31:10.757Z,102691.08
2019-03-28T20:33:38.486Z,102692.47
2019-03-28T20:36:30.004Z,102693.73
2019-03-28T20:38:35.580Z,102695.46
2019-03-28T20:41:03.185Z,102697.16
2019-03-28T20:43:30.747Z,102697.66
2019-03-28T20:45:58.311Z,102690.22
2019-03-28T20:48:25.821Z,102692.83
2019-03-28T20:50:53.430Z,102705.09
2019-03-28T20:53:21.147Z,102688.97
2019-03-28T20:55:48.759Z,102694.34
2019-03-28T20:58:16.416Z,102684.80
2019-03-28T21:00:46.099Z,102683.87
2019-03-28T21:03:15.000Z,102702.13
2019-03-28T21:05:43.913Z,102691.20
2019-03-28T21:08:12.787Z,102698.12
2019-03-28T21:10:40.346Z,102702.05
2019-03-28T21:13:07.878Z,102699.88
2019-03-28T21:15:35.534Z,102702.47
2019-03-28T21:18:03.207Z,102696.77
2019-03-28T21:20:30.850Z,102696.83
2019-03-28T21:22:58.353Z,102697.69
2019-03-28T21:25:29.297Z,102698.17
2019-03-28T21:27:55.486Z,102701.15
2019-03-28T21:30:23.163Z,102702.95
2019-03-28T21:32:55.602Z,102700.73
2019-03-28T21:35:20.109Z,102691.17
2019-03-28T21:37:47.561Z,102692.80
2019-03-28T21:40:15.081Z,102698.91
2019-03-28T21:42:42.578Z,102696.34
2019-03-28T21:45:10.191Z,102696.38
2019-03-28T21:47:37.659Z,102695.51
2019-03-28T21:50:07.316Z,102698.47
2019-03-28T21:52:34.770Z,102693.59
2019-03-28T21:55:03.130Z,102692.31
2019-03-28T21:57:30.588Z,102693.12
2019-03-28T21:59:58.074Z,102695.24
2019-03-28T22:02:25.560Z,102694.41
2019-03-28T22:04:53.046Z,102695.33
2019-03-28T22:07:20.517Z,102692.62
2019-03-28T22:09:48.027Z,102693.97
2019-03-28T22:12:15.551Z,102692.97
2019-03-28T22:14:43.055Z,102693.40
2019-03-28T22:17:10.528Z,102691.67
2019-03-28T22:19:38.038Z,102703.02
2019-03-28T22:22:05.664Z,102707.00
2019-03-28T22:24:33.160Z,102700.23
2019-03-28T22:27:00.718Z,102703.69
2019-03-28T22:29:28.208Z,102698.55
2019-03-28T22:31:56.802Z,102705.09
2019-03-28T22:34:24.385Z,102699.33
2019-03-28T22:36:57.566Z,102702.38
2019-03-28T22:39:21.265Z,102707.59
2019-03-28T22:41:48.966Z,102708.92
2019-03-28T22:44:17.331Z,102704.18
2019-03-28T22:46:44.821Z,102702.05
2019-03-28T22:49:12.310Z,102704.01
2019-03-28T22:51:40.436Z,102708.34
2019-03-28T22:54:07.924Z,102707.94
2019-03-28T22:56:35.620Z,102704.91
2019-03-28T22:59:03.089Z,102705.33
2019-03-28T23:01:30.673Z,102701.80
2019-03-28T23:03:58.306Z,102710.61
2019-03-28T23:06:25.834Z,102703.52
2019-03-28T23:08:53.308Z,102703.11
2019-03-28T23:11:20.805Z,102702.70
2019-03-28T23:13:48.713Z,102698.34
2019-03-28T23:16:16.557Z,102705.73
2019-03-28T23:18:44.149Z,102704.02
2019-03-28T23:21:11.815Z,102708.31
2019-03-28T23:23:39.323Z,102699.77
2019-03-28T23:26:06.832Z,102706.60
2019-03-28T23:28:34.317Z,102703.23
2019-03-28T23:31:01.807Z,102703.55
2019-03-28T23:33:29.349Z,102701.40
2019-03-28T23:35:56.855Z,102700.61
2019-03-28T23:38:24.330Z,102696.66
2019-03-28T23:40:51.838Z,102704.42
2019-03-28T23:43:19.313Z,102700.96
2019-03-28T23:45:46.834Z,102703.08
2019-03-28T23:48:14.288Z,102700.03
2019-03-28T23:50:41.803Z,102691.81
2019-03-28T23:53:09.262Z,102692.65
2019-03-28T23:55:36.807Z,102690.41
2019-03-28T23:58:04.309Z,102687.02
